createdAt,value
2023-03-18T00:01:38.721Z,4.88
2023-03-18T00:04:27.180Z,5.32
2023-03-18T00:07:16.286Z,5.32
2023-03-18T00:10:07.918Z,4.70
2023-03-18T00:12:56.359Z,5.00
2023-03-18T00:15:44.817Z,5.95
2023-03-18T00:18:34.403Z,5.50
2023-03-18T00:21:23.409Z,5.18
2023-03-18T00:24:12.345Z,6.00
2023-03-18T00:27:02.185Z,5.28
2023-03-18T00:29:51.212Z,4.60
2023-03-18T00:32:39.952Z,5.33
2023-03-18T00:35:30.633Z,6.70
2023-03-18T00:38:21.669Z,5.95
2023-03-18T00:41:15.793Z,6.07
2023-03-18T00:44:06.185Z,5.85
2023-03-18T00:46:54.893Z,6.18
2023-03-18T00:49:43.426Z,5.72
2023-03-18T00:52:32.514Z,5.85
2023-03-18T00:55:21.045Z,6.07
2023-03-18T00:58:10.056Z,5.90
2023-03-18T01:00:59.987Z,6.50
2023-03-18T01:03:50.178Z,5.50
2023-03-18T01:06:40.089Z,6.30
2023-03-18T01:09:28.575Z,6.32
2023-03-18T01:12:17.742Z,6.00
2023-03-18T01:15:07.607Z,6.57
2023-03-18T01:17:58.490Z,6.50
2023-03-18T01:20:47.252Z,5.93
2023-03-18T01:23:36.006Z,5.70
2023-03-18T01:26:26.222Z,6.00
2023-03-18T01:29:14.770Z,4.43
2023-03-18T01:32:03.744Z,6.07
2023-03-18T01:34:53.585Z,5.55
2023-03-18T01:37:42.170Z,5.22
2023-03-18T01:40:32.292Z,5.37
2023-03-18T01:43:23.974Z,4.63
2023-03-18T01:46:33.485Z,5.65
2023-03-18T01:49:24.322Z,5.03
2023-03-18T01:52:18.231Z,5.00
2023-03-18T01:55:12.684Z,5.20
2023-03-18T01:58:04.512Z,4.95
2023-03-18T02:01:04.250Z,4.72
2023-03-18T02:03:53.457Z,5.18
2023-03-18T02:06:42.477Z,4.53
2023-03-18T02:09:32.720Z,4.82
2023-03-18T02:12:24.511Z,4.57
2023-03-18T02:15:16.514Z,4.68
2023-03-18T02:18:09.042Z,4.90
2023-03-18T02:21:11.819Z,4.63
2023-03-18T02:24:07.261Z,4.32
2023-03-18T02:27:01.046Z,4.67
2023-03-18T02:29:54.366Z,4.28
2023-03-18T02:32:44.068Z,4.57
2023-03-18T02:35:34.021Z,5.07
2023-03-18T02:38:22.964Z,4.25
2023-03-18T02:41:16.214Z,4.68
2023-03-18T02:44:05.391Z,4.60
2023-03-18T02:46:58.587Z,4.53
2023-03-18T02:49:47.031Z,5.20
2023-03-18T02:52:35.521Z,4.70
2023-03-18T02:55:24.044Z,5.65
2023-03-18T02:58:12.753Z,5.15
2023-03-18T03:01:01.430Z,4.50
2023-03-18T03:03:52.031Z,4.65
2023-03-18T03:06:41.249Z,4.60
2023-03-18T03:09:31.070Z,4.38
2023-03-18T03:12:19.817Z,5.53
2023-03-18T03:15:10.185Z,5.55
2023-03-18T03:17:59.253Z,4.60
2023-03-18T03:20:49.357Z,4.85
2023-03-18T03:23:38.440Z,4.75
2023-03-18T03:26:28.746Z,4.90
2023-03-18T03:29:17.240Z,4.70
2023-03-18T03:32:06.901Z,5.07
2023-03-18T03:34:55.357Z,4.95
2023-03-18T03:37:45.329Z,5.43
2023-03-18T03:40:34.161Z,5.45
2023-03-18T03:43:22.694Z,5.40
2023-03-18T03:46:11.648Z,5.25
2023-03-18T03:49:00.175Z,4.20
2023-03-18T03:51:48.912Z,4.60
2023-03-18T03:54:41.525Z,4.53
2023-03-18T03:57:30.014Z,4.95
2023-03-18T04:00:21.282Z,5.00
2023-03-18T04:03:09.756Z,5.70
2023-03-18T04:05:58.253Z,5.38
2023-03-18T04:08:46.952Z,5.07
2023-03-18T04:11:36.810Z,4.93
2023-03-18T04:14:25.327Z,4.88
2023-03-18T04:17:14.053Z,5.20
2023-03-18T04:20:03.419Z,5.70
2023-03-18T04:22:51.896Z,5.23
2023-03-18T04:25:40.411Z,5.60
2023-03-18T04:28:30.324Z,6.10
2023-03-18T04:31:18.920Z,5.88
2023-03-18T04:34:07.776Z,4.90
2023-03-18T04:36:56.688Z,6.20
2023-03-18T04:39:45.217Z,5.60
2023-03-18T04:42:33.717Z,5.03
2023-03-18T04:45:24.935Z,5.38
2023-03-18T04:48:13.431Z,5.30
2023-03-18T04:51:02.288Z,5.53
2023-03-18T04:53:50.847Z,4.85
2023-03-18T04:56:40.634Z,5.10
2023-03-18T04:59:29.072Z,5.32
2023-03-18T05:02:19.506Z,4.70
2023-03-18T05:05:08.325Z,5.70
2023-03-18T05:07:56.887Z,5.13
2023-03-18T05:10:45.333Z,5.28
2023-03-18T05:13:34.111Z,6.22
2023-03-18T05:16:22.704Z,5.50
2023-03-18T05:19:13.026Z,4.60
2023-03-18T05:22:01.516Z,5.20
2023-03-18T05:24:50.705Z,5.97
2023-03-18T05:27:39.350Z,4.88
2023-03-18T05:30:28.200Z,4.70
2023-03-18T05:33:16.928Z,5.38
2023-03-18T05:36:07.720Z,6.85
2023-03-18T05:38:56.765Z,5.40
2023-03-18T05:41:45.205Z,5.90
2023-03-18T05:44:34.076Z,5.95
2023-03-18T05:47:22.689Z,7.20
2023-03-18T05:50:13.436Z,7.18
2023-03-18T05:53:04.440Z,5.90
2023-03-18T05:55:52.845Z,5.60
2023-03-18T05:58:41.289Z,5.88
2023-03-18T06:01:30.881Z,5.70
2023-03-18T06:04:20.288Z,5.40
2023-03-18T06:07:08.874Z,4.82
2023-03-18T06:09:58.775Z,5.33
2023-03-18T06:12:47.736Z,6.35
2023-03-18T06:15:36.195Z,6.20
2023-03-18T06:18:24.732Z,5.63
2023-03-18T06:21:13.271Z,4.45
2023-03-18T06:24:02.654Z,4.70
2023-03-18T06:26:52.856Z,5.65
2023-03-18T06:29:41.686Z,5.88
2023-03-18T06:32:30.436Z,5.50
2023-03-18T06:35:19.183Z,4.85
2023-03-18T06:38:08.777Z,6.20
2023-03-18T06:40:57.274Z,6.40
2023-03-18T06:43:50.559Z,5.70
2023-03-18T06:46:39.181Z,5.63
2023-03-18T06:49:27.783Z,7.10
2023-03-18T06:52:17.277Z,7.07
2023-03-18T06:55:07.620Z,5.88
2023-03-18T06:57:56.503Z,6.35
2023-03-18T07:00:47.838Z,5.20
2023-03-18T07:03:36.718Z,5.68
2023-03-18T07:06:25.203Z,5.57
2023-03-18T07:09:15.270Z,5.47
2023-03-18T07:12:03.800Z,5.05
2023-03-18T07:14:53.541Z,6.45
2023-03-18T07:17:43.525Z,5.75
2023-03-18T07:20:32.902Z,6.60
2023-03-18T07:23:21.951Z,6.65
2023-03-18T07:26:12.464Z,6.68
2023-03-18T07:29:00.882Z,6.70
2023-03-18T07:31:50.043Z,5.40
2023-03-18T07:34:39.840Z,4.43
2023-03-18T07:37:28.801Z,5.53
2023-03-18T07:40:17.527Z,5.63
2023-03-18T07:43:06.660Z,6.70
2023-03-18T07:45:55.745Z,6.73
2023-03-18T07:48:44.166Z,6.00
2023-03-18T07:51:34.206Z,5.90
2023-03-18T07:54:23.977Z,6.03
2023-03-18T07:57:12.982Z,7.78
2023-03-18T08:00:01.698Z,6.95
2023-03-18T08:02:50.356Z,6.40
2023-03-18T08:05:38.953Z,9.18
2023-03-18T08:08:29.002Z,8.98
2023-03-18T08:11:17.533Z,7.93
2023-03-18T08:14:05.975Z,7.80
2023-03-18T08:16:54.572Z,7.70
2023-03-18T08:19:43.072Z,6.75
2023-03-18T08:22:31.644Z,9.55
2023-03-18T08:25:22.973Z,11.07
2023-03-18T08:28:11.768Z,10.88
2023-03-18T08:31:00.439Z,11.38
2023-03-18T08:33:49.582Z,9.55
2023-03-18T08:36:38.197Z,9.23
2023-03-18T08:39:27.071Z,8.10
2023-03-18T08:42:17.579Z,9.77
2023-03-18T08:45:06.907Z,11.05
2023-03-18T08:47:55.670Z,11.48
2023-03-18T08:50:44.156Z,10.73
2023-03-18T08:53:32.617Z,10.15
2023-03-18T08:56:21.146Z,9.20
2023-03-18T08:59:11.249Z,8.35
2023-03-18T09:02:00.007Z,8.30
2023-03-18T09:04:49.442Z,9.95
2023-03-18T09:07:37.911Z,8.60
2023-03-18T09:10:27.075Z,9.55
2023-03-18T09:13:16.039Z,8.80
2023-03-18T09:16:07.312Z,8.88
2023-03-18T09:18:55.793Z,9.10
2023-03-18T09:21:44.551Z,10.75
2023-03-18T09:24:33.162Z,9.07
2023-03-18T09:27:21.806Z,9.35
2023-03-18T09:30:11.607Z,8.20
2023-03-18T09:33:01.712Z,9.75
2023-03-18T09:35:50.881Z,9.10
2023-03-18T09:38:39.401Z,8.10
2023-03-18T09:41:38.607Z,9.45
2023-03-18T09:44:31.739Z,8.88
2023-03-18T09:47:36.306Z,15.15
2023-03-18T09:50:40.445Z,11.15
2023-03-18T09:53:44.550Z,11.30
2023-03-18T09:56:36.925Z,10.20
2023-03-18T09:59:39.437Z,8.77
2023-03-18T10:02:35.010Z,8.35
2023-03-18T10:05:32.745Z,9.98
2023-03-18T10:08:35.149Z,9.93
2023-03-18T10:11:31.533Z,9.88
2023-03-18T10:14:30.102Z,8.75
2023-03-18T10:17:22.781Z,8.70
2023-03-18T10:20:19.069Z,10.02
2023-03-18T10:23:20.583Z,8.30
2023-03-18T10:26:17.517Z,9.32
2023-03-18T10:29:30.438Z,9.90
2023-03-18T10:32:46.492Z,12.70
2023-03-18T10:35:45.145Z,10.85
2023-03-18T10:38:37.660Z,8.93
2023-03-18T10:41:31.608Z,8.38
2023-03-18T10:44:22.160Z,10.60
2023-03-18T10:47:15.421Z,9.63
2023-03-18T10:50:06.132Z,9.65
2023-03-18T10:52:56.945Z,8.82
2023-03-18T10:55:52.248Z,7.63
2023-03-18T10:58:42.968Z,6.90
2023-03-18T11:01:31.473Z,8.63
2023-03-18T11:04:23.309Z,7.50
2023-03-18T11:07:18.837Z,7.13
2023-03-18T11:10:15.591Z,7.47
2023-03-18T11:13:06.434Z,9.77
2023-03-18T11:15:58.722Z,8.05
2023-03-18T11:18:48.940Z,9.60
2023-03-18T11:21:39.076Z,11.07
2023-03-18T11:24:38.841Z,8.15
2023-03-18T11:27:34.348Z,7.55
2023-03-18T11:30:34.111Z,8.57
2023-03-18T11:33:26.554Z,9.38
2023-03-18T11:36:19.577Z,9.45
2023-03-18T11:39:09.169Z,9.47
2023-03-18T11:41:58.904Z,9.88
2023-03-18T11:44:47.740Z,9.43
2023-03-18T11:47:39.147Z,8.82
2023-03-18T11:50:32.304Z,9.45
2023-03-18T11:53:29.164Z,8.85
2023-03-18T11:56:25.046Z,11.13
2023-03-18T11:59:31.833Z,9.10
2023-03-18T12:02:36.702Z,8.25
2023-03-18T12:06:00.081Z,7.43
2023-03-18T12:09:03.248Z,8.20
2023-03-18T12:12:17.904Z,9.23
2023-03-18T12:15:15.053Z,8.75
2023-03-18T12:18:18.154Z,9.55
2023-03-18T12:21:24.418Z,9.40
2023-03-18T12:24:49.787Z,9.50
2023-03-18T12:27:46.442Z,7.57
2023-03-18T12:30:53.608Z,10.47
2023-03-18T12:33:55.202Z,9.13
2023-03-18T12:36:59.132Z,10.57
2023-03-18T12:40:13.605Z,8.60
2023-03-18T12:43:22.050Z,9.48
2023-03-18T12:46:21.807Z,8.38
2023-03-18T12:49:14.277Z,8.60
2023-03-18T12:52:07.753Z,8.85
2023-03-18T12:54:59.537Z,10.48
2023-03-18T12:57:50.180Z,10.27
2023-03-18T13:00:41.923Z,10.63
2023-03-18T13:03:34.153Z,9.60
2023-03-18T13:06:26.617Z,8.75
2023-03-18T13:09:21.873Z,9.35
2023-03-18T13:12:14.644Z,12.18
2023-03-18T13:15:12.660Z,10.50
2023-03-18T13:18:12.972Z,9.63
2023-03-18T13:21:02.996Z,10.15
2023-03-18T13:24:02.671Z,9.77
2023-03-18T13:27:09.342Z,9.07
2023-03-18T13:30:06.234Z,9.60
2023-03-18T13:33:10.387Z,9.07
2023-03-18T13:36:28.654Z,8.82
2023-03-18T13:39:26.052Z,8.07
2023-03-18T13:42:23.153Z,8.30
2023-03-18T13:45:16.645Z,9.70
2023-03-18T13:48:08.874Z,11.07
2023-03-18T13:50:59.870Z,10.20
2023-03-18T13:53:50.630Z,10.02
2023-03-18T13:56:50.061Z,11.07
2023-03-18T13:59:48.836Z,8.50
2023-03-18T14:02:45.825Z,7.15
2023-03-18T14:05:41.039Z,9.38
2023-03-18T14:08:48.293Z,7.93
2023-03-18T14:11:48.064Z,8.90
2023-03-18T14:14:58.900Z,8.15
2023-03-18T14:17:49.540Z,10.23
2023-03-18T14:20:40.524Z,9.32
2023-03-18T14:23:36.780Z,7.38
2023-03-18T14:26:27.512Z,10.80
2023-03-18T14:29:25.421Z,12.80
2023-03-18T14:32:38.125Z,11.77
2023-03-18T14:35:29.355Z,11.68
2023-03-18T14:38:21.596Z,10.73
2023-03-18T14:41:22.458Z,12.07
2023-03-18T14:44:23.569Z,10.10
2023-03-18T14:47:35.569Z,10.95
2023-03-18T14:50:42.801Z,11.87
2023-03-18T14:53:34.965Z,13.52
2023-03-18T14:56:25.172Z,10.82
2023-03-18T14:59:17.458Z,9.80
2023-03-18T15:02:10.597Z,13.07
2023-03-18T15:05:00.105Z,10.47
2023-03-18T15:07:52.772Z,13.13
2023-03-18T15:10:41.674Z,11.85
2023-03-18T15:13:30.141Z,9.70
2023-03-18T15:16:20.805Z,10.15
2023-03-18T15:19:13.000Z,10.80
2023-03-18T15:22:04.599Z,10.57
2023-03-18T15:24:58.876Z,8.98
2023-03-18T15:27:48.228Z,7.80
2023-03-18T15:30:37.770Z,8.80
2023-03-18T15:33:31.327Z,7.63
2023-03-18T15:36:21.941Z,10.13
2023-03-18T15:39:29.734Z,7.40
2023-03-18T15:42:21.610Z,10.70
2023-03-18T15:45:18.133Z,9.02
2023-03-18T15:48:09.104Z,8.70
2023-03-18T15:51:00.024Z,7.07
2023-03-18T15:53:53.757Z,8.65
2023-03-18T15:56:47.577Z,7.72
2023-03-18T15:59:37.433Z,7.13
2023-03-18T16:02:26.491Z,8.23
2023-03-18T16:05:19.416Z,8.30
2023-03-18T16:08:14.073Z,7.97
2023-03-18T16:11:05.877Z,9.80
2023-03-18T16:13:54.979Z,8.05
2023-03-18T16:16:45.096Z,7.78
2023-03-18T16:19:33.983Z,7.50
2023-03-18T16:22:22.441Z,8.90
2023-03-18T16:25:11.992Z,10.88
2023-03-18T16:28:01.188Z,8.65
2023-03-18T16:30:52.182Z,9.50
2023-03-18T16:33:42.725Z,8.10
2023-03-18T16:36:35.093Z,7.10
2023-03-18T16:39:25.465Z,7.20
2023-03-18T16:42:14.045Z,8.15
2023-03-18T16:45:02.508Z,9.48
2023-03-18T16:47:52.685Z,9.48
2023-03-18T16:50:43.651Z,9.07
2023-03-18T16:53:33.279Z,9.40
2023-03-18T16:56:23.836Z,8.13
2023-03-18T16:59:15.827Z,8.57
2023-03-18T17:02:05.153Z,8.55
2023-03-18T17:04:53.607Z,8.25
2023-03-18T17:07:43.519Z,8.13
2023-03-18T17:10:32.441Z,9.77
2023-03-18T17:13:24.288Z,9.55
2023-03-18T17:16:19.005Z,9.10
2023-03-18T17:19:10.798Z,9.85
2023-03-18T17:21:59.480Z,8.88
2023-03-18T17:24:49.747Z,9.52
2023-03-18T17:27:44.188Z,9.57
2023-03-18T17:30:34.976Z,9.43
2023-03-18T17:33:27.149Z,10.03
2023-03-18T17:36:15.626Z,9.93
2023-03-18T17:39:04.266Z,10.25
2023-03-18T17:41:54.521Z,10.00
2023-03-18T17:44:43.042Z,9.88
2023-03-18T17:47:31.724Z,9.90
2023-03-18T17:50:23.174Z,10.70
2023-03-18T17:53:24.167Z,10.35
2023-03-18T17:56:15.823Z,11.18
2023-03-18T17:59:13.687Z,10.18
2023-03-18T18:02:02.164Z,11.00
2023-03-18T18:04:50.809Z,11.23
2023-03-18T18:07:39.341Z,11.35
2023-03-18T18:10:27.859Z,11.47
2023-03-18T18:13:17.793Z,11.18
2023-03-18T18:16:07.898Z,12.80
2023-03-18T18:18:56.347Z,11.50
2023-03-18T18:21:46.228Z,12.82
2023-03-18T18:24:35.755Z,13.13
2023-03-18T18:27:24.422Z,12.55
2023-03-18T18:30:16.491Z,13.48
2023-03-18T18:33:06.455Z,12.75
2023-03-18T18:35:55.612Z,13.27
2023-03-18T18:38:44.362Z,13.85
2023-03-18T18:41:33.252Z,15.32
2023-03-18T18:44:22.260Z,14.23
2023-03-18T18:47:18.903Z,15.37
2023-03-18T18:50:17.140Z,15.73
2023-03-18T18:53:24.371Z,14.65
2023-03-18T18:56:16.241Z,13.75
2023-03-18T18:59:17.367Z,14.97
2023-03-18T19:02:21.975Z,14.83
2023-03-18T19:05:11.939Z,14.45
2023-03-18T19:08:02.056Z,15.52
2023-03-18T19:10:52.861Z,15.73
2023-03-18T19:13:42.051Z,15.02
2023-03-18T19:16:34.513Z,15.93
2023-03-18T19:19:26.394Z,15.93
2023-03-18T19:22:17.641Z,21.90
2023-03-18T19:25:06.560Z,19.35
2023-03-18T19:27:55.705Z,16.80
2023-03-18T19:30:34.717Z,17.25
2023-03-18T19:33:26.884Z,17.67
2023-03-18T19:36:23.184Z,16.83
2023-03-18T19:39:16.521Z,16.30
2023-03-18T19:42:05.490Z,19.77
2023-03-18T19:44:54.027Z,16.80
2023-03-18T19:47:43.011Z,14.10
2023-03-18T19:50:31.670Z,14.47
2023-03-18T19:53:20.758Z,14.57
2023-03-18T19:56:23.957Z,13.52
2023-03-18T19:59:20.972Z,13.15
2023-03-18T20:02:21.932Z,13.37
2023-03-18T20:05:17.861Z,13.10
2023-03-18T20:08:06.624Z,12.85
2023-03-18T20:10:55.368Z,13.00
2023-03-18T20:13:45.780Z,14.05
2023-03-18T20:16:34.404Z,12.65
2023-03-18T20:19:22.920Z,13.43
2023-03-18T20:22:21.535Z,14.20
2023-03-18T20:25:18.665Z,14.18
2023-03-18T20:28:08.844Z,14.85
2023-03-18T20:30:59.741Z,15.77
2023-03-18T20:33:48.262Z,13.68
2023-03-18T20:36:36.817Z,13.07
2023-03-18T20:39:26.451Z,13.52
2023-03-18T20:42:17.382Z,14.13
2023-03-18T20:45:07.638Z,15.18
2023-03-18T20:47:57.897Z,12.68
2023-03-18T20:50:46.721Z,12.65
2023-03-18T20:53:35.200Z,13.27
2023-03-18T20:56:23.824Z,13.10
2023-03-18T20:59:12.524Z,18.20
2023-03-18T21:02:01.235Z,14.35
2023-03-18T21:04:51.237Z,13.40
2023-03-18T21:07:39.716Z,13.73
2023-03-18T21:10:28.809Z,13.23
2023-03-18T21:13:20.010Z,13.38
2023-03-18T21:16:14.410Z,13.38
2023-03-18T21:19:04.116Z,13.93
2023-03-18T21:21:53.964Z,14.20
2023-03-18T21:24:42.528Z,13.32
2023-03-18T21:27:31.077Z,14.20
2023-03-18T21:30:22.042Z,15.15
2023-03-18T21:33:20.556Z,18.17
2023-03-18T21:36:12.220Z,15.50
2023-03-18T21:39:02.004Z,16.52
2023-03-18T21:41:50.462Z,14.20
2023-03-18T21:44:38.932Z,15.30
2023-03-18T21:47:28.039Z,14.73
2023-03-18T21:50:21.480Z,14.73
2023-03-18T21:53:13.097Z,14.85
2023-03-18T21:56:03.044Z,14.67
2023-03-18T21:58:51.507Z,15.63
2023-03-18T22:01:40.109Z,16.27
2023-03-18T22:04:28.617Z,16.92
2023-03-18T22:07:17.584Z,16.23
2023-03-18T22:10:07.157Z,15.85
2023-03-18T22:12:56.975Z,14.60
2023-03-18T22:15:46.702Z,15.15
2023-03-18T22:18:35.232Z,14.55
2023-03-18T22:21:27.519Z,15.27
2023-03-18T22:24:16.075Z,15.23
2023-03-18T22:27:04.719Z,14.25
2023-03-18T22:29:56.501Z,14.90
2023-03-18T22:32:47.796Z,15.67
2023-03-18T22:35:36.767Z,16.85
2023-03-18T22:38:26.116Z,15.30
2023-03-18T22:41:20.839Z,16.23
2023-03-18T22:44:16.154Z,14.65
2023-03-18T22:47:06.463Z,15.75
2023-03-18T22:49:54.922Z,14.73
2023-03-18T22:52:43.480Z,14.80
2023-03-18T22:55:36.606Z,16.25
2023-03-18T22:58:27.551Z,15.55
2023-03-18T23:01:18.679Z,15.25
2023-03-18T23:04:12.173Z,14.95
2023-03-18T23:07:00.766Z,15.65
2023-03-18T23:09:56.466Z,15.73
2023-03-18T23:12:45.294Z,15.30
2023-03-18T23:15:33.984Z,16.30
2023-03-18T23:18:23.612Z,15.75
2023-03-18T23:21:16.904Z,15.25
2023-03-18T23:24:05.993Z,14.32
2023-03-18T23:26:54.388Z,15.32
2023-03-18T23:29:43.461Z,16.75
2023-03-18T23:32:32.134Z,15.73
2023-03-18T23:35:20.844Z,16.17
2023-03-18T23:38:10.994Z,15.07
2023-03-18T23:40:59.493Z,16.13
2023-03-18T23:43:47.983Z,16.30
2023-03-18T23:46:36.509Z,16.10
2023-03-18T23:49:25.060Z,15.55
2023-03-18T23:52:15.577Z,15.35
2023-03-18T23:55:18.350Z,17.50
2023-03-18T23:58:14.962Z,17.83
